createdAt,value
2023-05-13T00:01:50.663Z,72.85
2023-05-13T00:04:17.218Z,72.84
2023-05-13T00:06:43.772Z,72.36
2023-05-13T00:09:10.306Z,71.12
2023-05-13T00:11:36.882Z,71.78
2023-05-13T00:14:03.821Z,71.82
2023-05-13T00:16:30.445Z,71.92
2023-05-13T00:18:57.665Z,72.63
2023-05-13T00:21:24.230Z,70.98
2023-05-13T00:23:50.870Z,71.99
2023-05-13T00:26:17.610Z,71.02
2023-05-13T00:28:47.271Z,69.20
2023-05-13T00:31:13.767Z,70.18
2023-05-13T00:33:40.351Z,70.66
2023-05-13T00:36:07.738Z,69.84
2023-05-13T00:38:34.515Z,70.36
2023-05-13T00:41:02.825Z,71.58
2023-05-13T00:43:29.865Z,71.47
2023-05-13T00:45:56.602Z,72.08
2023-05-13T00:48:24.985Z,71.58
2023-05-13T00:50:51.599Z,71.38
2023-05-13T00:53:18.255Z,70.03
2023-05-13T00:55:46.009Z,71.40
2023-05-13T00:58:13.106Z,70.42
2023-05-13T01:01:09.565Z,70.33
2023-05-13T01:04:10.317Z,70.84
2023-05-13T01:07:00.980Z,71.27
2023-05-13T01:09:55.207Z,71.17
2023-05-13T01:12:29.759Z,70.42
2023-05-13T01:15:19.874Z,70.77
2023-05-13T01:18:10.312Z,70.97
2023-05-13T01:20:40.738Z,70.54
2023-05-13T01:23:07.387Z,70.68
2023-05-13T01:25:35.703Z,71.79
2023-05-13T01:28:02.389Z,71.43
2023-05-13T01:30:29.738Z,72.18
2023-05-13T01:32:56.443Z,70.13
2023-05-13T01:35:24.467Z,71.89
2023-05-13T01:37:51.547Z,71.48
2023-05-13T01:40:31.590Z,70.73
2023-05-13T01:43:01.297Z,70.64
2023-05-13T01:45:29.870Z,71.64
2023-05-13T01:47:57.072Z,71.43
2023-05-13T01:50:26.373Z,69.96
2023-05-13T01:52:52.844Z,71.59
2023-05-13T01:55:19.721Z,71.23
2023-05-13T01:57:48.285Z,71.34
2023-05-13T02:00:15.606Z,70.95
2023-05-13T02:02:42.350Z,71.63
2023-05-13T02:05:09.193Z,71.40
2023-05-13T02:07:35.908Z,71.48
2023-05-13T02:10:02.455Z,69.99
2023-05-13T02:12:28.963Z,70.72
2023-05-13T02:14:55.572Z,70.93
2023-05-13T02:17:23.095Z,70.99
2023-05-13T02:19:49.994Z,72.17
2023-05-13T02:22:16.694Z,70.88
2023-05-13T02:24:43.335Z,71.86
2023-05-13T02:27:12.527Z,70.98
2023-05-13T02:29:39.212Z,71.27
2023-05-13T02:32:06.380Z,71.16
2023-05-13T02:34:33.382Z,71.60
2023-05-13T02:36:59.989Z,72.01
2023-05-13T02:39:27.154Z,71.31
2023-05-13T02:41:57.523Z,71.56
2023-05-13T02:44:27.268Z,72.04
2023-05-13T02:46:53.948Z,72.49
2023-05-13T02:49:20.715Z,72.14
2023-05-13T02:51:48.432Z,71.48
2023-05-13T02:54:16.449Z,71.28
2023-05-13T02:56:42.998Z,72.05
2023-05-13T02:59:09.789Z,71.96
2023-05-13T03:01:36.836Z,71.65
2023-05-13T03:04:03.548Z,71.57
2023-05-13T03:06:30.028Z,72.13
2023-05-13T03:08:56.630Z,71.70
2023-05-13T03:11:23.197Z,72.23
2023-05-13T03:13:49.764Z,71.71
2023-05-13T03:16:16.348Z,72.72
2023-05-13T03:18:42.920Z,72.28
2023-05-13T03:21:09.579Z,72.79
2023-05-13T03:23:37.556Z,73.53
2023-05-13T03:26:05.082Z,72.72
2023-05-13T03:28:33.387Z,71.36
2023-05-13T03:31:00.827Z,72.11
2023-05-13T03:33:29.896Z,72.80
2023-05-13T03:35:56.990Z,72.76
2023-05-13T03:38:28.300Z,72.59
2023-05-13T03:40:55.004Z,73.00
2023-05-13T03:43:21.583Z,72.48
2023-05-13T03:45:54.276Z,72.75
2023-05-13T03:48:22.694Z,73.07
2023-05-13T03:50:49.428Z,71.80
2023-05-13T03:53:18.322Z,72.88
2023-05-13T03:55:46.121Z,73.79
2023-05-13T03:58:14.839Z,73.39
2023-05-13T04:00:42.648Z,73.28
2023-05-13T04:03:10.458Z,72.63
2023-05-13T04:05:37.150Z,72.14
2023-05-13T04:08:03.724Z,73.78
2023-05-13T04:10:30.322Z,73.13
2023-05-13T04:12:57.513Z,73.29
2023-05-13T04:15:24.052Z,73.47
2023-05-13T04:17:51.706Z,73.72
2023-05-13T04:20:18.313Z,73.59
2023-05-13T04:22:44.837Z,73.98
2023-05-13T04:25:11.456Z,73.93
2023-05-13T04:27:38.032Z,73.81
2023-05-13T04:30:11.115Z,74.74
2023-05-13T04:32:39.762Z,74.55
2023-05-13T04:35:09.855Z,74.58
2023-05-13T04:37:37.478Z,74.24
2023-05-13T04:40:08.005Z,74.39
2023-05-13T04:42:34.946Z,74.41
2023-05-13T04:45:01.998Z,74.54
2023-05-13T04:47:29.160Z,74.43
2023-05-13T04:49:55.795Z,73.96
2023-05-13T04:52:22.580Z,74.57
2023-05-13T04:54:49.185Z,74.37
2023-05-13T04:57:16.352Z,74.32
2023-05-13T04:59:42.920Z,73.78
2023-05-13T05:02:10.611Z,74.16
2023-05-13T05:04:37.902Z,74.95
2023-05-13T05:07:10.272Z,74.90
2023-05-13T05:09:37.072Z,74.21
2023-05-13T05:12:04.093Z,74.63
2023-05-13T05:14:33.072Z,74.48
2023-05-13T05:16:59.684Z,74.30
2023-05-13T05:19:26.402Z,74.19
2023-05-13T05:21:55.050Z,74.69
2023-05-13T05:24:21.583Z,74.58
2023-05-13T05:26:48.494Z,75.29
2023-05-13T05:29:16.326Z,74.51
2023-05-13T05:31:44.507Z,74.34
2023-05-13T05:34:11.408Z,74.33
2023-05-13T05:36:38.439Z,75.23
2023-05-13T05:39:05.887Z,75.27
2023-05-13T05:41:35.455Z,74.88
2023-05-13T05:44:02.204Z,74.86
2023-05-13T05:46:29.148Z,75.10
2023-05-13T05:48:56.897Z,74.84
2023-05-13T05:51:23.578Z,74.96
2023-05-13T05:53:50.280Z,75.54
2023-05-13T05:56:17.164Z,75.69
2023-05-13T05:58:45.111Z,76.34
2023-05-13T06:01:11.832Z,75.80
2023-05-13T06:03:38.521Z,75.98
2023-05-13T06:06:05.328Z,76.50
2023-05-13T06:08:33.092Z,76.31
2023-05-13T06:10:59.661Z,75.97
2023-05-13T06:13:26.408Z,76.50
2023-05-13T06:15:53.112Z,76.27
2023-05-13T06:18:19.748Z,76.38
2023-05-13T06:20:47.089Z,76.27
2023-05-13T06:23:14.951Z,76.34
2023-05-13T06:25:41.863Z,76.67
2023-05-13T06:28:10.510Z,76.52
2023-05-13T06:30:37.892Z,76.54
2023-05-13T06:33:04.807Z,76.46
2023-05-13T06:35:31.493Z,76.52
2023-05-13T06:37:59.594Z,76.36
2023-05-13T06:40:26.267Z,76.35
2023-05-13T06:42:53.459Z,77.20
2023-05-13T06:45:23.423Z,77.32
2023-05-13T06:47:51.391Z,77.31
2023-05-13T06:50:18.397Z,77.23
2023-05-13T06:52:44.940Z,77.22
2023-05-13T06:55:11.616Z,77.39
2023-05-13T06:57:43.062Z,77.91
2023-05-13T07:00:10.816Z,77.81
2023-05-13T07:02:37.356Z,77.09
2023-05-13T07:05:04.103Z,77.75
2023-05-13T07:07:30.649Z,76.84
2023-05-13T07:09:57.195Z,77.24
2023-05-13T07:12:23.761Z,77.12
2023-05-13T07:14:50.301Z,77.54
2023-05-13T07:17:17.568Z,77.57
2023-05-13T07:19:44.105Z,77.70
2023-05-13T07:22:11.470Z,77.82
2023-05-13T07:24:38.538Z,77.44
2023-05-13T07:27:05.249Z,77.68
2023-05-13T07:29:32.362Z,77.31
2023-05-13T07:32:03.736Z,76.55
2023-05-13T07:34:30.295Z,77.17
2023-05-13T07:36:56.816Z,77.23
2023-05-13T07:39:23.672Z,76.75
2023-05-13T07:41:50.194Z,76.73
2023-05-13T07:44:16.724Z,76.96
2023-05-13T07:46:43.448Z,77.80
2023-05-13T07:49:10.119Z,78.10
2023-05-13T07:51:36.829Z,77.20
2023-05-13T07:54:03.433Z,76.92
2023-05-13T07:56:30.369Z,76.81
2023-05-13T07:58:57.719Z,76.92
2023-05-13T08:01:24.275Z,77.45
2023-05-13T08:03:50.921Z,76.57
2023-05-13T08:06:17.658Z,77.13
2023-05-13T08:08:44.185Z,77.17
2023-05-13T08:11:10.960Z,76.76
2023-05-13T08:13:38.395Z,77.75
2023-05-13T08:16:07.142Z,76.14
2023-05-13T08:18:33.865Z,75.51
2023-05-13T08:21:00.413Z,75.86
2023-05-13T08:23:40.384Z,76.21
2023-05-13T08:26:11.665Z,77.28
2023-05-13T08:28:38.506Z,78.80
2023-05-13T08:31:05.065Z,77.57
2023-05-13T08:33:32.071Z,78.09
2023-05-13T08:35:59.914Z,77.58
2023-05-13T08:38:26.526Z,76.99
2023-05-13T08:40:53.235Z,76.98
2023-05-13T08:43:20.066Z,76.73
2023-05-13T08:45:47.872Z,77.12
2023-05-13T08:48:15.981Z,77.43
2023-05-13T08:50:44.070Z,76.07
2023-05-13T08:53:12.243Z,76.36
2023-05-13T08:55:40.358Z,75.68
2023-05-13T08:58:07.440Z,76.09
2023-05-13T09:00:37.249Z,76.47
2023-05-13T09:03:04.119Z,77.17
2023-05-13T09:05:31.866Z,74.98
2023-05-13T09:07:58.845Z,75.90
2023-05-13T09:10:25.385Z,76.56
2023-05-13T09:12:55.854Z,74.78
2023-05-13T09:15:24.717Z,75.02
2023-05-13T09:17:54.732Z,74.42
2023-05-13T09:20:22.292Z,75.60
2023-05-13T09:22:51.266Z,74.40
2023-05-13T09:25:20.884Z,74.52
2023-05-13T09:27:52.978Z,74.96
2023-05-13T09:30:22.653Z,72.74
2023-05-13T09:33:04.129Z,72.25
2023-05-13T09:35:32.327Z,74.00
2023-05-13T09:37:59.014Z,73.78
2023-05-13T09:40:25.803Z,73.98
2023-05-13T09:42:58.143Z,71.85
2023-05-13T09:45:25.680Z,72.02
2023-05-13T09:47:53.496Z,71.57
2023-05-13T09:50:20.395Z,70.46
2023-05-13T09:52:47.011Z,70.54
2023-05-13T09:55:14.008Z,68.49
2023-05-13T09:57:40.944Z,67.95
2023-05-13T10:00:12.799Z,69.50
2023-05-13T10:02:45.036Z,70.84
2023-05-13T10:05:11.660Z,70.57
2023-05-13T10:07:38.883Z,68.95
2023-05-13T10:10:08.309Z,68.72
2023-05-13T10:12:37.962Z,66.92
2023-05-13T10:15:05.844Z,66.93
2023-05-13T10:17:32.818Z,66.68
2023-05-13T10:20:00.507Z,66.36
2023-05-13T10:22:29.483Z,65.47
2023-05-13T10:25:01.441Z,68.94
2023-05-13T10:27:33.000Z,70.01
2023-05-13T10:30:03.397Z,67.44
2023-05-13T10:32:31.473Z,67.07
2023-05-13T10:35:08.495Z,65.96
2023-05-13T10:38:00.269Z,66.29
2023-05-13T10:40:27.858Z,64.93
2023-05-13T10:43:15.051Z,66.30
2023-05-13T10:45:49.857Z,64.08
2023-05-13T10:48:17.597Z,64.34
2023-05-13T10:50:55.991Z,66.53
2023-05-13T10:53:25.647Z,59.99
2023-05-13T10:55:55.240Z,61.23
2023-05-13T10:58:24.468Z,61.99
2023-05-13T11:00:51.405Z,59.10
2023-05-13T11:03:17.973Z,56.24
2023-05-13T11:05:47.201Z,57.52
2023-05-13T11:08:39.422Z,58.08
2023-05-13T11:11:22.919Z,56.94
2023-05-13T11:13:50.952Z,54.89
2023-05-13T11:16:18.476Z,56.06
2023-05-13T11:18:45.300Z,57.30
2023-05-13T11:21:11.867Z,57.13
2023-05-13T11:24:05.520Z,54.94
2023-05-13T11:26:46.828Z,55.01
2023-05-13T11:29:14.005Z,51.67
2023-05-13T11:31:47.321Z,50.48
2023-05-13T11:34:14.847Z,49.84
2023-05-13T11:36:46.180Z,51.51
2023-05-13T11:39:18.095Z,50.51
2023-05-13T11:41:47.210Z,49.78
2023-05-13T11:44:15.890Z,51.59
2023-05-13T11:46:59.092Z,50.41
2023-05-13T11:49:34.799Z,49.91
2023-05-13T11:52:02.892Z,47.39
2023-05-13T11:54:29.492Z,47.85
2023-05-13T11:56:56.473Z,48.37
2023-05-13T11:59:23.745Z,47.43
2023-05-13T12:02:00.224Z,48.33
2023-05-13T12:04:32.678Z,46.27
2023-05-13T12:06:59.794Z,45.78
2023-05-13T12:09:26.285Z,46.43
2023-05-13T12:11:53.911Z,45.43
2023-05-13T12:14:21.060Z,45.29
2023-05-13T12:16:48.077Z,45.42
2023-05-13T12:19:14.934Z,46.13
2023-05-13T12:21:41.708Z,44.77
2023-05-13T12:24:21.589Z,45.69
2023-05-13T12:26:49.060Z,42.84
2023-05-13T12:29:15.790Z,42.74
2023-05-13T12:32:01.824Z,42.96
2023-05-13T12:34:32.491Z,42.66
2023-05-13T12:37:11.005Z,43.19
2023-05-13T12:39:38.044Z,41.44
2023-05-13T12:42:04.892Z,42.70
2023-05-13T12:44:31.895Z,43.23
2023-05-13T12:46:59.272Z,42.77
2023-05-13T12:49:26.316Z,40.48
2023-05-13T12:51:52.838Z,40.72
2023-05-13T12:54:19.402Z,43.48
2023-05-13T12:56:46.145Z,44.69
2023-05-13T12:59:14.318Z,42.06
2023-05-13T13:01:42.210Z,43.60
2023-05-13T13:04:09.159Z,42.75
2023-05-13T13:06:35.961Z,43.13
2023-05-13T13:09:02.498Z,45.42
2023-05-13T13:11:29.832Z,43.63
2023-05-13T13:13:56.402Z,41.66
2023-05-13T13:16:23.368Z,43.14
2023-05-13T13:18:53.220Z,41.46
2023-05-13T13:21:21.513Z,43.20
2023-05-13T13:23:47.992Z,40.51
2023-05-13T13:26:14.527Z,41.49
2023-05-13T13:28:41.030Z,44.11
2023-05-13T13:31:07.977Z,42.40
2023-05-13T13:33:34.623Z,43.42
2023-05-13T13:36:01.206Z,43.07
2023-05-13T13:38:27.761Z,40.26
2023-05-13T13:40:54.239Z,39.84
2023-05-13T13:43:20.701Z,38.18
2023-05-13T13:45:47.253Z,41.54
2023-05-13T13:48:14.010Z,38.40
2023-05-13T13:50:40.680Z,36.83
2023-05-13T13:53:07.198Z,38.11
2023-05-13T13:55:33.733Z,38.02
2023-05-13T13:58:00.465Z,39.53
2023-05-13T14:00:27.105Z,40.32
2023-05-13T14:02:54.039Z,39.59
2023-05-13T14:05:20.738Z,38.96
2023-05-13T14:07:49.350Z,39.46
2023-05-13T14:10:16.155Z,40.44
2023-05-13T14:12:42.648Z,39.76
2023-05-13T14:15:09.401Z,39.96
2023-05-13T14:17:36.231Z,38.23
2023-05-13T14:20:03.597Z,37.92
2023-05-13T14:22:30.240Z,38.20
2023-05-13T14:24:56.878Z,37.25
2023-05-13T14:27:24.480Z,37.55
2023-05-13T14:29:51.369Z,38.31
2023-05-13T14:32:17.929Z,36.11
2023-05-13T14:34:44.524Z,37.76
2023-05-13T14:37:11.011Z,38.48
2023-05-13T14:39:37.520Z,40.91
2023-05-13T14:42:04.405Z,40.69
2023-05-13T14:44:31.669Z,39.90
2023-05-13T14:46:58.408Z,37.29
2023-05-13T14:49:25.254Z,36.54
2023-05-13T14:51:51.792Z,36.47
2023-05-13T14:54:18.343Z,37.96
2023-05-13T14:56:45.265Z,38.04
2023-05-13T14:59:11.895Z,33.75
2023-05-13T15:01:38.665Z,36.31
2023-05-13T15:04:05.885Z,34.67
2023-05-13T15:06:32.719Z,34.81
2023-05-13T15:08:59.429Z,34.20
2023-05-13T15:11:28.787Z,35.71
2023-05-13T15:13:55.388Z,33.24
2023-05-13T15:16:22.454Z,33.57
2023-05-13T15:18:50.216Z,31.80
2023-05-13T15:21:17.350Z,32.15
2023-05-13T15:23:43.892Z,35.55
2023-05-13T15:26:10.541Z,33.17
2023-05-13T15:28:37.794Z,33.52
2023-05-13T15:31:04.953Z,35.02
2023-05-13T15:33:32.595Z,33.04
2023-05-13T15:35:59.433Z,32.22
2023-05-13T15:38:25.932Z,33.40
2023-05-13T15:40:52.555Z,36.12
2023-05-13T15:43:19.081Z,33.66
2023-05-13T15:45:45.878Z,35.13
2023-05-13T15:48:12.452Z,35.52
2023-05-13T15:50:39.118Z,35.36
2023-05-13T15:53:06.164Z,35.00
2023-05-13T15:55:33.006Z,33.45
2023-05-13T15:57:59.511Z,33.85
2023-05-13T16:00:26.309Z,32.39
2023-05-13T16:02:52.836Z,33.61
2023-05-13T16:05:19.476Z,34.21
2023-05-13T16:07:46.038Z,34.06
2023-05-13T16:10:12.523Z,34.98
2023-05-13T16:12:39.192Z,34.97
2023-05-13T16:15:06.617Z,33.95
2023-05-13T16:17:33.336Z,35.19
2023-05-13T16:20:00.117Z,35.15
2023-05-13T16:22:33.492Z,33.93
2023-05-13T16:25:01.939Z,32.95
2023-05-13T16:27:29.264Z,32.68
2023-05-13T16:29:56.551Z,32.52
2023-05-13T16:32:23.253Z,32.41
2023-05-13T16:34:50.089Z,34.06
2023-05-13T16:37:16.961Z,32.94
2023-05-13T16:39:43.739Z,34.19
2023-05-13T16:42:10.528Z,33.31
2023-05-13T16:44:37.152Z,34.07
2023-05-13T16:47:03.976Z,33.57
2023-05-13T16:49:30.545Z,33.97
2023-05-13T16:51:57.074Z,33.96
2023-05-13T16:54:23.578Z,33.47
2023-05-13T16:56:50.484Z,34.44
2023-05-13T16:59:22.133Z,37.35
2023-05-13T17:01:49.181Z,34.51
2023-05-13T17:04:16.077Z,35.00
2023-05-13T17:06:43.120Z,35.68
2023-05-13T17:09:10.481Z,33.75
2023-05-13T17:11:37.898Z,33.76
2023-05-13T17:14:05.735Z,33.29
2023-05-13T17:16:32.482Z,33.88
2023-05-13T17:18:59.521Z,34.56
2023-05-13T17:21:26.122Z,34.13
2023-05-13T17:23:52.659Z,34.70
2023-05-13T17:26:20.249Z,34.68
2023-05-13T17:28:46.861Z,32.77
2023-05-13T17:31:13.574Z,31.07
2023-05-13T17:33:40.151Z,33.17
2023-05-13T17:36:06.966Z,31.10
2023-05-13T17:38:33.561Z,33.04
2023-05-13T17:41:00.138Z,31.76
2023-05-13T17:43:27.022Z,32.39
2023-05-13T17:45:53.700Z,32.94
2023-05-13T17:48:20.373Z,32.80
2023-05-13T17:50:47.054Z,33.81
2023-05-13T17:53:13.670Z,34.60
2023-05-13T17:55:40.202Z,35.17
2023-05-13T17:58:06.772Z,33.82
2023-05-13T18:00:33.312Z,35.26
2023-05-13T18:02:59.818Z,35.06
2023-05-13T18:05:26.438Z,35.32
2023-05-13T18:07:52.975Z,34.72
2023-05-13T18:10:19.720Z,35.82
2023-05-13T18:12:46.389Z,36.09
2023-05-13T18:15:13.555Z,36.79
2023-05-13T18:17:40.332Z,35.74
2023-05-13T18:20:07.400Z,36.58
2023-05-13T18:22:34.950Z,38.62
2023-05-13T18:25:01.434Z,37.75
2023-05-13T18:27:28.000Z,37.70
2023-05-13T18:29:54.612Z,38.12
2023-05-13T18:32:21.249Z,39.03
2023-05-13T18:34:47.794Z,38.31
2023-05-13T18:37:15.056Z,36.89
2023-05-13T18:39:43.468Z,38.53
2023-05-13T18:42:09.978Z,38.16
2023-05-13T18:44:36.514Z,38.48
2023-05-13T18:47:04.415Z,38.50
2023-05-13T18:49:32.255Z,38.04
2023-05-13T18:51:58.937Z,39.02
2023-05-13T18:54:27.808Z,39.16
2023-05-13T18:56:54.958Z,40.22
2023-05-13T18:59:21.703Z,41.31
2023-05-13T19:01:48.329Z,42.30
2023-05-13T19:04:15.401Z,42.42
2023-05-13T19:06:42.125Z,43.72
2023-05-13T19:09:08.589Z,44.40
2023-05-13T19:11:35.106Z,44.51
2023-05-13T19:14:02.350Z,45.09
2023-05-13T19:16:28.968Z,44.94
2023-05-13T19:18:55.574Z,46.67
2023-05-13T19:21:23.440Z,46.28
2023-05-13T19:23:50.517Z,46.66
2023-05-13T19:26:17.201Z,46.13
2023-05-13T19:28:44.962Z,46.71
2023-05-13T19:31:11.716Z,47.33
2023-05-13T19:33:38.316Z,47.40
2023-05-13T19:36:05.849Z,47.86
2023-05-13T19:38:33.126Z,48.33
2023-05-13T19:40:59.885Z,48.55
2023-05-13T19:43:26.406Z,48.31
2023-05-13T19:45:55.420Z,48.37
2023-05-13T19:48:21.947Z,48.82
2023-05-13T19:50:48.593Z,49.18
2023-05-13T19:53:15.447Z,48.97
2023-05-13T19:55:41.968Z,49.22
2023-05-13T19:58:08.494Z,49.74
2023-05-13T20:00:35.025Z,49.53
2023-05-13T20:03:01.848Z,50.37
2023-05-13T20:05:28.533Z,49.57
2023-05-13T20:07:55.160Z,50.08
2023-05-13T20:10:22.084Z,50.48
2023-05-13T20:12:48.803Z,51.49
2023-05-13T20:15:16.625Z,50.52
2023-05-13T20:17:44.548Z,51.13
2023-05-13T20:20:11.489Z,50.83
2023-05-13T20:22:38.069Z,50.36
2023-05-13T20:25:04.872Z,51.07
2023-05-13T20:27:31.344Z,51.27
2023-05-13T20:30:00.017Z,51.53
2023-05-13T20:32:26.686Z,51.38
2023-05-13T20:34:54.414Z,52.24
2023-05-13T20:37:23.958Z,52.39
2023-05-13T20:39:50.703Z,52.24
2023-05-13T20:42:17.348Z,51.86
2023-05-13T20:44:46.010Z,52.59
2023-05-13T20:47:13.219Z,51.74
2023-05-13T20:49:43.430Z,51.63
2023-05-13T20:52:10.986Z,53.14
2023-05-13T20:54:38.206Z,53.84
2023-05-13T20:57:05.096Z,53.08
2023-05-13T20:59:31.638Z,53.72
2023-05-13T21:01:58.632Z,53.56
2023-05-13T21:04:28.205Z,53.45
2023-05-13T21:06:54.708Z,53.39
2023-05-13T21:09:21.342Z,54.65
2023-05-13T21:11:47.840Z,52.42
2023-05-13T21:14:14.442Z,52.37
2023-05-13T21:16:40.987Z,53.64
2023-05-13T21:19:08.102Z,53.56
2023-05-13T21:21:34.788Z,52.67
2023-05-13T21:24:01.317Z,53.29
2023-05-13T21:26:27.856Z,53.17
2023-05-13T21:28:54.363Z,52.89
2023-05-13T21:31:21.036Z,53.12
2023-05-13T21:33:48.851Z,53.40
2023-05-13T21:36:15.513Z,53.94
2023-05-13T21:38:42.066Z,53.32
2023-05-13T21:41:08.578Z,53.42
2023-05-13T21:43:35.273Z,54.46
2023-05-13T21:46:03.177Z,54.43
2023-05-13T21:48:29.775Z,54.77
2023-05-13T21:50:56.426Z,55.66
2023-05-13T21:53:23.099Z,55.67
2023-05-13T21:55:50.246Z,54.98
2023-05-13T21:58:16.876Z,55.50
2023-05-13T22:00:43.459Z,55.33
2023-05-13T22:03:10.211Z,55.69
2023-05-13T22:05:42.201Z,55.64
2023-05-13T22:08:08.790Z,56.04
2023-05-13T22:10:35.339Z,56.57
2023-05-13T22:13:01.938Z,56.42
2023-05-13T22:15:28.607Z,56.11
2023-05-13T22:17:55.352Z,57.02
2023-05-13T22:20:22.432Z,56.98
2023-05-13T22:22:49.268Z,56.28
2023-05-13T22:25:15.875Z,56.00
2023-05-13T22:27:42.428Z,55.97
2023-05-13T22:30:09.195Z,56.65
2023-05-13T22:32:36.952Z,56.13
2023-05-13T22:35:04.459Z,56.97
2023-05-13T22:37:31.188Z,56.59
2023-05-13T22:39:57.813Z,56.10
2023-05-13T22:42:24.649Z,56.05
2023-05-13T22:44:51.992Z,54.89
2023-05-13T22:47:18.539Z,56.58
2023-05-13T22:49:45.119Z,55.32
2023-05-13T22:52:11.677Z,55.05
2023-05-13T22:54:38.252Z,55.24
2023-05-13T22:57:05.038Z,56.29
2023-05-13T22:59:31.665Z,55.77
2023-05-13T23:01:58.663Z,55.51
2023-05-13T23:04:25.334Z,55.71
2023-05-13T23:06:52.435Z,56.25
2023-05-13T23:09:18.969Z,55.38
2023-05-13T23:11:45.493Z,56.83
2023-05-13T23:14:11.973Z,56.29
2023-05-13T23:16:38.612Z,56.05
2023-05-13T23:19:05.248Z,56.03
2023-05-13T23:21:32.374Z,57.44
2023-05-13T23:26:48.778Z,56.60
2023-05-13T23:29:15.378Z,57.44
2023-05-13T23:31:42.026Z,57.92
2023-05-13T23:34:08.727Z,57.45
2023-05-13T23:36:35.629Z,57.16
2023-05-13T23:39:02.109Z,56.68
2023-05-13T23:41:28.786Z,56.88
2023-05-13T23:43:55.454Z,56.40
2023-05-13T23:46:22.827Z,57.19
2023-05-13T23:48:49.434Z,58.22
2023-05-13T23:51:16.008Z,58.02
2023-05-13T23:53:42.544Z,57.87
2023-05-13T23:56:09.096Z,57.89
2023-05-13T23:58:35.764Z,58.40
